createdAt,value
2017-07-22T00:00:33.711Z,3.60
2017-07-22T00:03:01.982Z,2.60
2017-07-22T00:05:30.307Z,2.90
2017-07-22T00:07:59.711Z,2.80
2017-07-22T00:10:27.999Z,2.97
2017-07-22T00:12:56.326Z,2.70
2017-07-22T00:15:26.099Z,3.17
2017-07-22T00:17:54.362Z,3.57
2017-07-22T00:20:24.053Z,3.10
2017-07-22T00:22:52.968Z,3.13
2017-07-22T00:25:22.586Z,3.10
2017-07-22T00:27:51.558Z,2.97
2017-07-22T00:30:19.830Z,2.33
2017-07-22T00:32:48.870Z,2.70
2017-07-22T00:35:18.546Z,2.87
2017-07-22T00:37:47.091Z,2.93
2017-07-22T00:40:15.363Z,3.00
2017-07-22T00:42:43.720Z,3.00
2017-07-22T00:45:13.135Z,2.90
2017-07-22T00:47:41.444Z,2.97
2017-07-22T00:50:09.782Z,3.17
2017-07-22T00:52:39.418Z,2.57
2017-07-22T00:55:07.977Z,3.00
2017-07-22T00:57:36.315Z,3.07
2017-07-22T01:00:04.592Z,3.33
2017-07-22T01:02:34.214Z,3.47
2017-07-22T01:05:03.175Z,2.90
2017-07-22T01:07:33.690Z,3.17
2017-07-22T01:10:02.358Z,3.17
2017-07-22T01:12:30.704Z,3.20
2017-07-22T01:14:58.978Z,2.80
2017-07-22T01:17:28.618Z,3.57
2017-07-22T01:19:58.189Z,3.13
2017-07-22T01:22:27.128Z,4.07
2017-07-22T01:24:56.758Z,3.37
2017-07-22T01:27:25.370Z,2.90
2017-07-22T01:29:53.639Z,3.30
2017-07-22T01:32:21.906Z,3.20
2017-07-22T01:34:51.803Z,3.30
2017-07-22T01:37:20.091Z,3.90
2017-07-22T01:39:49.710Z,3.70
2017-07-22T01:42:18.314Z,3.40
2017-07-22T01:44:47.934Z,3.70
2017-07-22T01:47:16.845Z,4.50
2017-07-22T01:49:46.526Z,4.53
2017-07-22T01:52:16.178Z,3.40
2017-07-22T01:54:44.462Z,4.07
2017-07-22T01:57:12.816Z,4.30
2017-07-22T01:59:42.620Z,4.07
2017-07-22T02:02:10.911Z,5.10
2017-07-22T02:04:39.272Z,4.00
2017-07-22T02:07:10.057Z,4.57
2017-07-22T02:09:39.040Z,4.47
2017-07-22T02:12:07.358Z,6.30
2017-07-22T02:14:36.390Z,6.43
2017-07-22T02:17:06.204Z,6.03
2017-07-22T02:19:34.519Z,5.70
2017-07-22T02:22:04.139Z,5.20
2017-07-22T02:24:32.338Z,5.40
2017-07-22T02:27:02.012Z,7.73
2017-07-22T02:29:30.931Z,5.97
2017-07-22T02:32:00.590Z,7.47
2017-07-22T02:34:29.189Z,14.17
2017-07-22T02:36:58.254Z,17.53
2017-07-22T02:39:26.570Z,15.27
2017-07-22T02:41:56.398Z,11.77
2017-07-22T02:44:26.062Z,16.10
2017-07-22T02:46:54.983Z,38.27
2017-07-22T02:49:23.310Z,34.43
2017-07-22T02:51:51.635Z,21.90
2017-07-22T02:54:19.926Z,18.93
2017-07-22T02:56:48.255Z,15.57
2017-07-22T02:59:17.925Z,16.60
2017-07-22T03:01:47.429Z,17.47
2017-07-22T03:04:16.022Z,17.63
2017-07-22T03:06:44.358Z,34.60
2017-07-22T03:09:14.003Z,27.93
2017-07-22T03:11:42.603Z,15.93
2017-07-22T03:14:12.286Z,16.20
2017-07-22T03:16:41.806Z,14.40
2017-07-22T03:19:10.422Z,18.90
2017-07-22T03:21:40.110Z,25.60
2017-07-22T03:24:08.283Z,20.53
2017-07-22T03:26:36.620Z,31.00
2017-07-22T03:29:04.943Z,22.73
2017-07-22T03:31:33.226Z,14.50
2017-07-22T03:34:01.559Z,15.27
2017-07-22T03:36:31.010Z,17.87
2017-07-22T03:38:59.302Z,20.50
2017-07-22T03:41:28.990Z,15.73
2017-07-22T03:43:57.973Z,12.80
2017-07-22T03:46:27.602Z,9.00
2017-07-22T03:48:56.186Z,10.50
2017-07-22T03:51:26.528Z,6.80
2017-07-22T03:53:54.803Z,6.47
2017-07-22T03:56:24.458Z,5.83
2017-07-22T03:58:53.034Z,4.97
2017-07-22T04:01:22.078Z,6.17
2017-07-22T04:03:50.390Z,4.90
2017-07-22T04:06:20.057Z,5.33
2017-07-22T04:08:48.595Z,6.57
2017-07-22T04:11:16.908Z,7.10
2017-07-22T04:13:45.202Z,6.50
2017-07-22T04:16:14.622Z,6.40
2017-07-22T04:18:43.350Z,7.93
2017-07-22T04:21:13.047Z,5.67
2017-07-22T04:23:41.226Z,7.60
2017-07-22T04:26:10.906Z,6.73
2017-07-22T04:28:39.869Z,5.73
2017-07-22T04:31:08.174Z,5.90
2017-07-22T04:33:36.498Z,5.83
2017-07-22T04:36:06.157Z,5.77
2017-07-22T04:38:34.702Z,6.20
2017-07-22T04:41:03.782Z,6.00
2017-07-22T04:43:33.441Z,5.40
2017-07-22T04:46:02.363Z,6.07
2017-07-22T04:48:30.671Z,5.47
2017-07-22T04:51:00.479Z,5.47
2017-07-22T04:53:30.111Z,6.80
2017-07-22T04:55:58.702Z,6.80
2017-07-22T04:58:27.021Z,6.33
2017-07-22T05:00:55.303Z,6.10
2017-07-22T05:03:25.120Z,6.00
2017-07-22T05:05:55.122Z,6.40
2017-07-22T05:08:24.037Z,5.50
2017-07-22T05:10:53.845Z,7.00
2017-07-22T05:13:22.155Z,6.70
2017-07-22T05:15:50.430Z,6.20
2017-07-22T05:18:20.086Z,6.53
2017-07-22T05:20:48.658Z,6.40
2017-07-22T05:23:16.935Z,6.60
2017-07-22T05:25:46.586Z,7.63
2017-07-22T05:28:15.910Z,8.03
2017-07-22T05:30:44.594Z,7.50
2017-07-22T05:33:12.919Z,6.10
2017-07-22T05:35:42.581Z,6.80
2017-07-22T05:38:10.736Z,7.17
2017-07-22T05:40:40.581Z,5.90
2017-07-22T05:43:08.899Z,5.70
2017-07-22T05:45:38.541Z,5.83
2017-07-22T05:48:07.490Z,4.97
2017-07-22T05:50:35.791Z,5.53
2017-07-22T05:53:04.063Z,4.67
2017-07-22T05:55:33.882Z,4.33
2017-07-22T05:58:02.191Z,3.80
2017-07-22T06:00:30.463Z,3.93
2017-07-22T06:02:59.551Z,3.10
2017-07-22T06:05:27.878Z,3.57
2017-07-22T06:07:56.158Z,3.77
2017-07-22T06:10:25.971Z,3.87
2017-07-22T06:12:54.294Z,4.10
2017-07-22T06:15:22.567Z,4.70
2017-07-22T06:17:52.222Z,5.50
2017-07-22T06:20:20.409Z,5.37
2017-07-22T06:22:48.674Z,5.40
2017-07-22T06:25:16.977Z,5.23
2017-07-22T06:27:46.637Z,7.13
2017-07-22T06:30:15.182Z,6.93
2017-07-22T06:32:44.863Z,7.13
2017-07-22T06:35:13.834Z,7.90
2017-07-22T06:37:42.123Z,8.97
2017-07-22T06:40:11.211Z,9.00
2017-07-22T06:42:40.304Z,7.53
2017-07-22T06:45:09.358Z,6.93
2017-07-22T06:47:39.037Z,6.30
2017-07-22T06:50:07.979Z,7.73
2017-07-22T06:52:36.251Z,5.83
2017-07-22T06:55:04.583Z,5.40
2017-07-22T06:57:32.882Z,5.10
2017-07-22T07:00:02.300Z,6.07
2017-07-22T07:02:32.115Z,5.40
2017-07-22T07:05:01.767Z,4.43
2017-07-22T07:07:30.683Z,3.87
2017-07-22T07:09:59.032Z,3.87
2017-07-22T07:12:27.322Z,3.77
2017-07-22T07:14:56.951Z,3.33
2017-07-22T07:17:25.532Z,3.77
2017-07-22T07:19:53.806Z,4.50
2017-07-22T07:22:23.429Z,4.50
2017-07-22T07:24:52.401Z,3.50
2017-07-22T07:27:21.443Z,3.70
2017-07-22T07:29:49.716Z,3.87
2017-07-22T07:32:19.386Z,3.33
2017-07-22T07:34:47.535Z,2.50
2017-07-22T07:37:15.807Z,3.10
2017-07-22T07:39:44.160Z,2.67
2017-07-22T07:42:13.962Z,2.00
2017-07-22T07:44:42.246Z,2.30
2017-07-22T07:47:10.583Z,2.37
2017-07-22T07:49:38.862Z,2.10
2017-07-22T07:52:07.139Z,2.43
2017-07-22T07:54:35.454Z,2.40
2017-07-22T07:57:03.727Z,2.40
2017-07-22T07:59:33.509Z,2.10
2017-07-22T08:02:02.380Z,2.40
2017-07-22T08:04:31.997Z,3.00
2017-07-22T08:07:00.159Z,2.77
2017-07-22T08:09:29.845Z,2.93
2017-07-22T08:11:59.503Z,3.13
2017-07-22T08:14:27.787Z,2.90
2017-07-22T08:16:56.098Z,3.20
2017-07-22T08:19:25.714Z,2.37
2017-07-22T08:21:55.214Z,5.87
2017-07-22T08:24:23.804Z,4.50
2017-07-22T08:26:52.067Z,4.50
2017-07-22T08:29:21.686Z,5.00
2017-07-22T08:31:50.770Z,2.73
2017-07-22T08:34:19.043Z,5.53
2017-07-22T08:36:48.822Z,5.63
2017-07-22T08:39:17.498Z,5.70
2017-07-22T08:41:45.773Z,4.83
2017-07-22T08:44:14.819Z,2.87
2017-07-22T08:46:44.505Z,5.03
2017-07-22T08:49:13.067Z,5.00
2017-07-22T08:51:41.346Z,4.20
2017-07-22T08:54:09.678Z,4.43
2017-07-22T08:56:39.471Z,4.63
2017-07-22T08:59:09.140Z,4.27
2017-07-22T09:01:37.715Z,4.30
2017-07-22T09:04:06.011Z,3.63
2017-07-22T09:06:35.083Z,3.93
2017-07-22T09:09:04.163Z,2.77
2017-07-22T09:11:32.431Z,2.87
2017-07-22T09:14:02.052Z,2.80
2017-07-22T09:16:30.646Z,2.40
2017-07-22T09:18:58.944Z,2.20
2017-07-22T09:21:28.579Z,2.30
2017-07-22T09:23:58.130Z,2.23
2017-07-22T09:26:26.670Z,1.90
2017-07-22T09:28:55.711Z,2.07
2017-07-22T09:31:25.398Z,1.90
2017-07-22T09:33:55.059Z,1.87
2017-07-22T09:36:23.332Z,1.70
2017-07-22T09:38:51.678Z,2.27
2017-07-22T09:41:21.454Z,1.70
2017-07-22T09:43:49.729Z,1.83
2017-07-22T09:46:19.562Z,1.97
2017-07-22T09:48:47.834Z,1.70
2017-07-22T09:51:16.107Z,2.00
2017-07-22T09:53:44.450Z,2.20
2017-07-22T09:56:13.134Z,1.90
2017-07-22T09:58:41.419Z,1.83
2017-07-22T10:01:11.263Z,2.00
2017-07-22T10:03:40.904Z,2.20
2017-07-22T10:06:09.455Z,1.97
2017-07-22T10:08:38.594Z,2.30
2017-07-22T10:11:07.631Z,2.20
2017-07-22T10:13:37.249Z,1.63
2017-07-22T10:16:06.958Z,2.07
2017-07-22T10:18:36.582Z,2.10
2017-07-22T10:21:05.119Z,2.00
2017-07-22T10:23:33.454Z,1.73
2017-07-22T10:26:01.727Z,1.70
2017-07-22T10:28:31.506Z,1.70
2017-07-22T10:31:00.943Z,2.77
2017-07-22T10:33:29.989Z,2.43
2017-07-22T10:35:58.268Z,1.80
2017-07-22T10:38:26.594Z,2.40
2017-07-22T10:40:56.372Z,2.13
2017-07-22T10:43:24.646Z,2.20
2017-07-22T10:45:54.326Z,2.07
2017-07-22T10:48:23.243Z,2.00
2017-07-22T10:50:51.514Z,2.10
2017-07-22T10:53:20.742Z,2.63
2017-07-22T10:55:50.358Z,2.33
2017-07-22T10:58:18.899Z,2.10
2017-07-22T11:00:47.210Z,2.30
2017-07-22T11:03:15.482Z,2.03
2017-07-22T11:05:43.766Z,2.03
2017-07-22T11:08:13.233Z,2.17
2017-07-22T11:10:42.868Z,2.03
2017-07-22T11:13:11.419Z,2.47
2017-07-22T11:15:40.139Z,2.37
2017-07-22T11:18:08.425Z,2.70
2017-07-22T11:20:36.695Z,2.87
2017-07-22T11:23:06.562Z,2.80
2017-07-22T11:25:34.835Z,2.33
2017-07-22T11:28:04.458Z,2.23
2017-07-22T11:30:34.170Z,2.63
2017-07-22T11:33:03.211Z,2.50
2017-07-22T11:35:31.486Z,2.20
2017-07-22T11:38:00.591Z,2.57
2017-07-22T11:40:28.886Z,2.27
2017-07-22T11:42:58.507Z,3.30
2017-07-22T11:45:27.558Z,2.93
2017-07-22T11:47:57.184Z,2.73
2017-07-22T11:50:25.334Z,2.67
2017-07-22T11:52:55.103Z,3.00
2017-07-22T11:55:23.248Z,3.27
2017-07-22T11:57:52.407Z,2.50
2017-07-22T12:00:21.898Z,2.43
2017-07-22T12:02:50.605Z,2.90
2017-07-22T12:05:20.412Z,2.70
2017-07-22T12:07:50.361Z,2.77
2017-07-22T12:10:18.898Z,2.83
2017-07-22T12:12:47.170Z,2.87
2017-07-22T12:15:16.283Z,2.80
2017-07-22T12:17:44.570Z,3.07
2017-07-22T12:20:14.362Z,2.10
2017-07-22T12:22:45.009Z,3.50
2017-07-22T12:25:14.678Z,3.20
2017-07-22T12:27:44.317Z,2.80
2017-07-22T12:30:13.891Z,3.13
2017-07-22T12:32:43.391Z,3.10
2017-07-22T12:35:11.949Z,3.77
2017-07-22T12:37:40.294Z,3.50
2017-07-22T12:40:09.712Z,2.47
2017-07-22T12:42:37.982Z,2.47
2017-07-22T12:45:06.298Z,2.70
2017-07-22T12:47:34.571Z,3.40
2017-07-22T12:50:02.847Z,2.73
2017-07-22T12:52:32.554Z,3.13
2017-07-22T12:55:01.097Z,3.60
2017-07-22T12:57:30.148Z,2.93
2017-07-22T13:00:00.146Z,2.73
2017-07-22T13:02:28.711Z,2.50
2017-07-22T13:04:56.984Z,3.30
2017-07-22T13:07:26.663Z,3.13
2017-07-22T13:09:54.810Z,3.70
2017-07-22T13:12:23.087Z,3.03
2017-07-22T13:14:51.432Z,3.03
2017-07-22T13:17:19.707Z,3.00
2017-07-22T13:19:47.984Z,3.47
2017-07-22T13:22:17.442Z,3.03
2017-07-22T13:24:47.074Z,2.60
2017-07-22T13:27:15.991Z,2.80
2017-07-22T13:29:44.357Z,3.07
2017-07-22T13:32:12.647Z,2.87
2017-07-22T13:34:42.272Z,2.87
2017-07-22T13:37:11.991Z,3.30
2017-07-22T13:39:41.056Z,3.40
2017-07-22T13:42:10.712Z,3.67
2017-07-22T13:44:40.443Z,3.30
2017-07-22T13:47:10.082Z,3.40
2017-07-22T13:49:39.587Z,3.20
2017-07-22T13:52:07.849Z,3.00
2017-07-22T13:54:36.885Z,3.30
2017-07-22T13:57:05.154Z,3.60
2017-07-22T13:59:33.475Z,3.30
2017-07-22T14:02:03.252Z,4.20
2017-07-22T14:04:31.531Z,3.10
2017-07-22T14:07:01.482Z,3.40
2017-07-22T14:09:29.627Z,3.20
2017-07-22T14:11:57.920Z,3.90
2017-07-22T14:14:26.763Z,3.10
2017-07-22T14:16:56.547Z,3.07
2017-07-22T14:19:24.819Z,3.70
2017-07-22T14:21:53.932Z,3.87
2017-07-22T14:24:22.203Z,3.90
2017-07-22T14:26:51.827Z,4.90
2017-07-22T14:29:20.415Z,4.20
2017-07-22T14:31:50.039Z,4.50
2017-07-22T14:34:18.616Z,2.93
2017-07-22T14:36:46.932Z,3.23
2017-07-22T14:39:16.705Z,3.90
2017-07-22T14:41:45.759Z,5.00
2017-07-22T14:44:14.098Z,3.63
2017-07-22T14:46:43.525Z,3.50
2017-07-22T14:49:13.152Z,3.60
2017-07-22T14:51:42.702Z,3.27
2017-07-22T14:54:12.023Z,3.10
2017-07-22T14:56:40.333Z,3.53
2017-07-22T14:59:08.672Z,2.50
2017-07-22T15:01:38.326Z,3.70
2017-07-22T15:04:06.471Z,3.03
2017-07-22T15:06:35.957Z,2.60
2017-07-22T15:09:05.586Z,2.83
2017-07-22T15:11:34.498Z,3.00
2017-07-22T15:14:02.819Z,2.60
2017-07-22T15:16:31.094Z,2.67
2017-07-22T15:18:59.370Z,3.03
2017-07-22T15:21:27.717Z,3.50
2017-07-22T15:23:56.762Z,2.70
2017-07-22T15:26:25.798Z,2.97
2017-07-22T15:28:54.119Z,2.50
2017-07-22T15:31:23.527Z,2.60
2017-07-22T15:33:52.198Z,3.10
2017-07-22T15:36:22.043Z,2.70
2017-07-22T15:38:50.312Z,2.90
2017-07-22T15:41:19.459Z,3.30
2017-07-22T15:43:49.118Z,2.90
2017-07-22T15:46:17.662Z,2.97
2017-07-22T15:48:47.290Z,2.73
2017-07-22T15:51:16.271Z,2.70
2017-07-22T15:53:44.551Z,2.70
2017-07-22T15:56:12.821Z,2.70
2017-07-22T15:58:41.155Z,2.93
2017-07-22T16:01:10.572Z,2.80
2017-07-22T16:03:38.901Z,3.10
2017-07-22T16:06:07.219Z,3.27
2017-07-22T16:08:35.495Z,2.93
2017-07-22T16:11:05.277Z,2.80
2017-07-22T16:13:33.619Z,2.70
2017-07-22T16:16:01.890Z,2.20
2017-07-22T16:18:30.197Z,2.40
2017-07-22T16:20:59.303Z,2.93
2017-07-22T16:23:27.595Z,2.90
2017-07-22T16:25:57.219Z,3.27
2017-07-22T16:28:25.823Z,2.70
2017-07-22T16:30:54.098Z,2.50
2017-07-22T16:33:22.370Z,2.13
2017-07-22T16:35:52.224Z,2.73
2017-07-22T16:38:20.490Z,2.57
2017-07-22T16:40:48.764Z,2.47
2017-07-22T16:43:17.083Z,2.50
2017-07-22T16:45:46.859Z,2.70
2017-07-22T16:48:15.142Z,2.83
2017-07-22T16:50:45.006Z,2.83
2017-07-22T16:53:13.285Z,2.50
2017-07-22T16:55:41.571Z,2.43
2017-07-22T16:58:09.930Z,2.70
2017-07-22T17:00:39.571Z,2.90
2017-07-22T17:03:09.128Z,2.53
2017-07-22T17:05:37.468Z,2.47
2017-07-22T17:08:06.511Z,2.77
2017-07-22T17:10:35.551Z,3.03
2017-07-22T17:13:03.874Z,2.90
2017-07-22T17:15:32.142Z,3.57
2017-07-22T17:18:00.423Z,2.57
2017-07-22T17:20:28.770Z,2.63
2017-07-22T17:22:58.201Z,3.10
2017-07-22T17:25:26.471Z,2.53
2017-07-22T17:27:54.826Z,2.77
2017-07-22T17:30:23.099Z,2.50
2017-07-22T17:32:51.375Z,3.00
2017-07-22T17:35:19.691Z,2.87
2017-07-22T17:37:49.471Z,2.70
2017-07-22T17:40:17.748Z,3.00
2017-07-22T17:42:46.082Z,3.00
2017-07-22T17:45:14.359Z,2.60
2017-07-22T17:47:43.403Z,2.53
2017-07-22T17:52:47.617Z,2.77
2017-07-22T17:55:15.934Z,2.93
2017-07-22T17:57:44.613Z,2.40
2017-07-22T18:00:12.895Z,3.00
2017-07-22T18:02:42.032Z,2.40
2017-07-22T18:05:10.307Z,2.40
2017-07-22T18:07:38.594Z,2.83
2017-07-22T18:10:06.947Z,3.50
2017-07-22T18:12:35.219Z,2.53
2017-07-22T18:15:03.491Z,3.40
2017-07-22T18:17:32.978Z,2.70
2017-07-22T18:20:01.243Z,2.80
2017-07-22T18:22:29.543Z,2.60
2017-07-22T18:24:58.627Z,2.70
2017-07-22T18:27:27.299Z,2.90
2017-07-22T18:29:56.347Z,2.77
2017-07-22T18:32:25.428Z,2.77
2017-07-22T18:34:53.699Z,2.63
2017-07-22T18:37:21.980Z,3.13
2017-07-22T18:39:51.644Z,3.20
2017-07-22T18:42:19.795Z,2.80
2017-07-22T18:44:48.070Z,2.90
2017-07-22T18:47:17.154Z,2.40
2017-07-22T18:49:46.194Z,2.80
2017-07-22T18:52:14.481Z,2.43
2017-07-22T18:54:42.827Z,3.00
2017-07-22T18:57:12.485Z,2.87
2017-07-22T18:59:41.419Z,3.70
2017-07-22T19:02:11.271Z,3.57
2017-07-22T19:04:39.571Z,3.10
2017-07-22T19:07:09.204Z,3.00
2017-07-22T19:09:38.945Z,3.00
2017-07-22T19:12:07.219Z,2.97
2017-07-22T19:14:35.491Z,3.47
2017-07-22T19:17:03.834Z,2.87
2017-07-22T19:19:33.243Z,3.20
2017-07-22T19:22:01.510Z,3.27
2017-07-22T19:24:30.602Z,3.20
2017-07-22T19:26:59.657Z,3.33
2017-07-22T19:29:27.941Z,3.00
2017-07-22T19:31:56.271Z,3.03
2017-07-22T19:34:24.538Z,3.10
2017-07-22T19:36:52.815Z,3.00
2017-07-22T19:39:22.502Z,3.03
2017-07-22T19:41:51.051Z,3.50
2017-07-22T19:44:19.328Z,2.30
2017-07-22T19:46:47.658Z,2.63
2017-07-22T19:49:16.335Z,2.90
2017-07-22T19:51:45.031Z,3.60
2017-07-22T19:54:15.617Z,2.90
2017-07-22T19:56:45.282Z,2.70
2017-07-22T19:59:13.567Z,3.40
2017-07-22T20:01:41.923Z,2.77
2017-07-22T20:04:11.353Z,3.50
2017-07-22T20:06:39.654Z,3.10
2017-07-22T20:09:07.987Z,3.40
2017-07-22T20:11:36.262Z,2.70
2017-07-22T20:14:04.930Z,2.53
2017-07-22T20:16:34.397Z,2.27
2017-07-22T20:19:02.672Z,2.80
2017-07-22T20:21:30.951Z,3.40
2017-07-22T20:24:00.807Z,2.90
2017-07-22T20:26:29.083Z,3.70
2017-07-22T20:28:57.356Z,3.40
2017-07-22T20:31:25.694Z,3.33
2017-07-22T20:33:54.739Z,3.13
2017-07-22T20:36:24.367Z,2.90
2017-07-22T20:38:52.954Z,2.90
2017-07-22T20:41:21.234Z,3.20
2017-07-22T20:43:50.853Z,3.37
2017-07-22T20:46:20.202Z,2.83
2017-07-22T20:48:49.239Z,2.87
2017-07-22T20:51:17.515Z,2.97
2017-07-22T20:53:45.856Z,3.70
2017-07-22T20:56:14.133Z,3.20
2017-07-22T20:58:42.419Z,3.20
2017-07-22T21:01:10.772Z,3.37
2017-07-22T21:03:39.073Z,2.90
2017-07-22T21:06:08.858Z,3.70
2017-07-22T21:08:38.334Z,3.93
2017-07-22T21:11:07.374Z,3.57
2017-07-22T21:13:36.993Z,3.80
2017-07-22T21:16:06.696Z,3.30
2017-07-22T21:18:34.975Z,2.70
2017-07-22T21:21:04.598Z,3.20
2017-07-22T21:23:33.198Z,3.20
2017-07-22T21:26:01.471Z,3.30
2017-07-22T21:28:29.752Z,3.43
2017-07-22T21:30:58.104Z,2.93
2017-07-22T21:33:26.374Z,4.47
2017-07-22T21:35:55.419Z,3.90
2017-07-22T21:38:23.759Z,3.83
2017-07-22T21:40:52.038Z,3.53
2017-07-22T21:43:20.310Z,3.27
2017-07-22T21:45:48.636Z,3.10
2017-07-22T21:48:16.906Z,3.57
2017-07-22T21:50:45.192Z,3.50
2017-07-22T21:53:14.310Z,2.77
2017-07-22T21:55:43.355Z,3.43
2017-07-22T21:58:11.638Z,3.13
2017-07-22T22:00:41.354Z,3.70
2017-07-22T22:03:10.668Z,3.40
2017-07-22T22:05:38.938Z,3.37
2017-07-22T22:08:07.266Z,3.20
2017-07-22T22:10:37.044Z,3.67
2017-07-22T22:13:05.323Z,3.50
2017-07-22T22:15:35.006Z,3.20
2017-07-22T22:18:03.551Z,3.87
2017-07-22T22:20:31.828Z,2.70
2017-07-22T22:23:01.654Z,3.10
2017-07-22T22:25:30.707Z,3.40
2017-07-22T22:28:00.494Z,3.23
2017-07-22T22:30:28.817Z,3.53
2017-07-22T22:32:57.095Z,3.80
2017-07-22T22:35:26.130Z,3.80
2017-07-22T22:37:54.487Z,3.30
2017-07-22T22:40:24.267Z,2.80
2017-07-22T22:42:53.920Z,3.50
2017-07-22T22:45:22.875Z,3.00
2017-07-22T22:47:51.154Z,3.83
2017-07-22T22:50:19.454Z,3.57
2017-07-22T22:52:47.762Z,3.53
2017-07-22T22:55:16.038Z,4.10
2017-07-22T22:57:44.359Z,4.90
2017-07-22T23:00:14.203Z,4.00
2017-07-22T23:02:43.624Z,3.93
2017-07-22T23:05:13.299Z,4.60
2017-07-22T23:07:42.263Z,4.00
2017-07-22T23:10:10.551Z,4.20
2017-07-22T23:12:38.867Z,5.10
2017-07-22T23:15:07.949Z,4.07
2017-07-22T23:17:36.982Z,3.80
2017-07-22T23:20:06.060Z,4.90
2017-07-22T23:22:34.358Z,3.87
2017-07-22T23:25:02.634Z,3.60
2017-07-22T23:27:30.939Z,3.63
2017-07-22T23:29:59.254Z,3.80
2017-07-22T23:32:28.671Z,4.20
2017-07-22T23:34:56.974Z,3.50
2017-07-22T23:37:26.630Z,4.20
2017-07-22T23:39:55.174Z,4.20
2017-07-22T23:42:23.494Z,4.30
2017-07-22T23:44:53.150Z,3.33
2017-07-22T23:47:22.062Z,3.50
2017-07-22T23:49:51.722Z,4.30
2017-07-22T23:52:21.255Z,4.00
2017-07-22T23:54:50.534Z,4.17
2017-07-22T23:57:20.194Z,3.80
2017-07-22T23:59:49.875Z,3.97
